createdAt,value
2022-08-27T00:03:51.463Z,19.03
2022-08-27T00:08:54.519Z,22.73
2022-08-27T00:13:56.682Z,20.73
2022-08-27T00:19:00.210Z,21.30
2022-08-27T00:24:02.406Z,16.10
2022-08-27T00:29:05.173Z,18.17
2022-08-27T00:34:08.824Z,19.60
2022-08-27T00:39:15.901Z,20.97
2022-08-27T00:44:18.034Z,19.30
2022-08-27T00:49:27.107Z,17.53
2022-08-27T00:54:30.348Z,19.53
2022-08-27T00:59:32.678Z,17.00
2022-08-27T01:04:39.180Z,24.77
2022-08-27T01:09:43.116Z,16.03
2022-08-27T01:14:46.703Z,20.70
2022-08-27T01:19:54.590Z,15.13
2022-08-27T01:25:01.587Z,15.33
2022-08-27T01:30:05.103Z,17.97
2022-08-27T01:35:09.955Z,17.33
2022-08-27T01:40:14.333Z,17.83
2022-08-27T01:45:21.365Z,16.07
2022-08-27T01:50:27.262Z,17.80
2022-08-27T01:55:32.225Z,17.70
2022-08-27T02:00:37.145Z,19.63
2022-08-27T02:05:44.779Z,16.03
2022-08-27T02:10:49.925Z,20.70
2022-08-27T02:15:51.981Z,16.67
2022-08-27T02:20:54.100Z,22.47
2022-08-27T02:25:57.580Z,14.03
2022-08-27T02:30:59.691Z,16.83
2022-08-27T02:36:02.871Z,16.53
2022-08-27T02:41:07.079Z,19.83
2022-08-27T02:46:09.360Z,19.60
2022-08-27T02:51:11.790Z,20.50
2022-08-27T02:56:21.634Z,20.90
2022-08-27T03:01:24.052Z,15.90
2022-08-27T03:06:26.412Z,19.30
2022-08-27T03:11:31.313Z,20.57
2022-08-27T03:16:34.191Z,18.83
2022-08-27T03:27:01.154Z,17.53
2022-08-27T03:32:05.973Z,17.03
2022-08-27T03:37:07.774Z,17.17
2022-08-27T03:42:10.961Z,20.17
2022-08-27T03:47:12.843Z,15.93
2022-08-27T03:52:14.773Z,21.77
2022-08-27T03:57:17.950Z,19.03
2022-08-27T04:02:19.681Z,22.50
2022-08-27T04:07:21.702Z,24.07
2022-08-27T04:12:24.952Z,24.83
2022-08-27T04:17:26.870Z,23.23
2022-08-27T04:22:28.789Z,23.70
2022-08-27T04:27:32.167Z,22.07
2022-08-27T04:32:35.918Z,23.53
2022-08-27T04:37:37.699Z,26.00
2022-08-27T04:42:40.851Z,23.10
2022-08-27T04:47:42.645Z,23.27
2022-08-27T04:52:44.442Z,23.37
2022-08-27T04:57:47.640Z,19.47
2022-08-27T05:02:49.427Z,21.73
2022-08-27T05:07:51.422Z,21.67
2022-08-27T05:12:58.083Z,23.20
2022-08-27T05:18:01.869Z,21.83
2022-08-27T05:23:03.612Z,23.90
2022-08-27T05:28:06.831Z,27.70
2022-08-27T05:33:09.061Z,25.97
2022-08-27T05:38:11.143Z,30.40
2022-08-27T05:43:15.500Z,32.70
2022-08-27T05:48:17.509Z,34.50
2022-08-27T05:53:19.400Z,31.53
2022-08-27T05:58:22.531Z,33.03
2022-08-27T06:03:24.403Z,32.47
2022-08-27T06:08:26.624Z,28.13
2022-08-27T06:13:30.996Z,27.23
2022-08-27T06:18:33.261Z,20.80
2022-08-27T06:23:36.003Z,19.10
2022-08-27T06:28:39.437Z,17.10
2022-08-27T06:33:43.456Z,16.30
2022-08-27T06:38:45.984Z,14.20
2022-08-27T06:43:53.478Z,12.93
2022-08-27T06:48:58.274Z,11.27
2022-08-27T06:54:02.583Z,10.07
2022-08-27T06:59:11.666Z,11.83
2022-08-27T07:04:18.871Z,7.77
2022-08-27T07:09:20.950Z,11.47
2022-08-27T07:14:24.271Z,9.50
2022-08-27T07:19:26.221Z,8.43
2022-08-27T07:24:28.018Z,7.73
2022-08-27T07:29:32.345Z,9.53
2022-08-27T07:34:34.301Z,8.10
2022-08-27T07:39:36.178Z,9.47
2022-08-27T07:44:39.319Z,8.03
2022-08-27T07:49:42.525Z,7.90
2022-08-27T07:54:44.364Z,7.05
2022-08-27T07:59:47.474Z,6.47
2022-08-27T08:04:49.366Z,7.43
2022-08-27T08:09:51.393Z,6.97
2022-08-27T08:14:54.462Z,10.00
2022-08-27T08:20:17.609Z,9.43
2022-08-27T08:25:18.525Z,7.07
2022-08-27T08:30:22.274Z,7.93
2022-08-27T08:35:24.535Z,7.70
2022-08-27T08:40:32.939Z,9.17
2022-08-27T08:45:41.499Z,8.33
2022-08-27T08:50:53.861Z,8.67
2022-08-27T08:56:00.417Z,8.38
2022-08-27T09:01:07.431Z,6.95
2022-08-27T09:06:18.320Z,8.68
2022-08-27T09:11:27.961Z,8.40
2022-08-27T09:16:31.661Z,8.48
2022-08-27T09:21:39.997Z,6.97
2022-08-27T09:26:43.664Z,8.18
2022-08-27T09:31:53.974Z,8.77
2022-08-27T09:37:04.184Z,8.80
2022-08-27T09:42:07.885Z,8.27
2022-08-27T09:47:13.630Z,11.95
2022-08-27T09:52:32.384Z,10.23
2022-08-27T09:57:41.570Z,10.43
2022-08-27T10:02:52.631Z,10.40
2022-08-27T10:07:59.445Z,8.25
2022-08-27T10:13:10.266Z,7.13
2022-08-27T10:18:24.962Z,8.75
2022-08-27T10:23:33.637Z,13.32
2022-08-27T10:28:45.833Z,7.82
2022-08-27T10:34:02.503Z,9.57
2022-08-27T10:39:13.356Z,8.80
2022-08-27T10:44:37.204Z,8.00
2022-08-27T10:49:47.193Z,9.38
2022-08-27T10:54:57.176Z,7.75
2022-08-27T11:00:04.832Z,8.35
2022-08-27T11:05:17.666Z,11.55
2022-08-27T11:10:23.799Z,7.93
2022-08-27T11:15:29.695Z,8.35
2022-08-27T11:20:40.949Z,6.78
2022-08-27T11:25:50.457Z,7.25
2022-08-27T11:30:59.706Z,8.70
2022-08-27T11:36:26.256Z,9.85
2022-08-27T11:41:47.373Z,5.28
2022-08-27T11:46:53.541Z,12.40
2022-08-27T11:52:03.530Z,7.95
2022-08-27T11:57:15.063Z,4.50
2022-08-27T12:02:22.902Z,6.22
2022-08-27T12:07:33.547Z,7.40
2022-08-27T12:12:44.893Z,7.90
2022-08-27T12:17:56.170Z,6.00
2022-08-27T12:23:16.971Z,4.20
2022-08-27T12:28:26.736Z,3.17
2022-08-27T12:33:35.212Z,3.47
2022-08-27T12:38:46.294Z,5.00
2022-08-27T12:44:03.145Z,4.00
2022-08-27T12:49:34.255Z,3.90
2022-08-27T12:54:40.725Z,5.97
2022-08-27T12:59:56.312Z,3.33
2022-08-27T13:05:02.976Z,3.50
2022-08-27T13:10:13.477Z,5.60
2022-08-27T13:15:17.309Z,4.82
2022-08-27T13:20:22.679Z,3.40
2022-08-27T13:25:28.820Z,4.85
2022-08-27T13:30:35.531Z,2.30
2022-08-27T13:35:40.836Z,5.47
2022-08-27T13:40:56.923Z,5.63
2022-08-27T13:46:01.381Z,4.97
2022-08-27T13:51:03.567Z,6.22
2022-08-27T13:56:07.494Z,3.55
2022-08-27T14:01:13.750Z,6.57
2022-08-27T14:06:31.406Z,3.88
2022-08-27T14:11:39.305Z,4.38
2022-08-27T14:16:41.995Z,5.63
2022-08-27T14:21:44.262Z,7.13
2022-08-27T14:26:50.493Z,5.32
2022-08-27T14:31:52.691Z,5.78
2022-08-27T14:36:55.147Z,5.30
2022-08-27T14:41:58.463Z,4.10
2022-08-27T14:47:00.870Z,6.05
2022-08-27T14:52:04.921Z,4.32
2022-08-27T14:57:09.239Z,4.65
2022-08-27T15:02:12.909Z,5.28
2022-08-27T15:07:15.014Z,7.70
2022-08-27T15:12:26.479Z,7.03
2022-08-27T15:17:35.195Z,3.85
2022-08-27T15:22:44.038Z,6.80
2022-08-27T15:27:47.578Z,4.95
2022-08-27T15:32:49.654Z,5.72
2022-08-27T15:37:51.641Z,5.68
2022-08-27T15:42:58.027Z,6.05
2022-08-27T15:48:00.730Z,6.53
2022-08-27T15:53:05.710Z,6.20
2022-08-27T15:58:10.099Z,3.67
2022-08-27T16:03:14.634Z,4.20
2022-08-27T16:08:16.804Z,3.55
2022-08-27T16:13:19.825Z,2.75
2022-08-27T16:18:26.620Z,2.80
2022-08-27T16:23:30.762Z,3.55
2022-08-27T16:28:34.040Z,2.25
2022-08-27T16:33:36.113Z,3.93
2022-08-27T16:38:41.785Z,5.07
2022-08-27T16:43:45.111Z,3.70
2022-08-27T16:48:46.902Z,2.10
2022-08-27T16:53:50.518Z,2.90
2022-08-27T16:58:53.763Z,2.83
2022-08-27T17:04:11.275Z,2.40
2022-08-27T17:09:17.411Z,2.57
2022-08-27T17:14:20.657Z,2.40
2022-08-27T17:19:22.384Z,1.73
2022-08-27T17:24:24.410Z,2.67
2022-08-27T17:29:27.589Z,3.37
2022-08-27T17:34:31.475Z,4.53
2022-08-27T17:39:33.467Z,3.37
2022-08-27T17:44:37.803Z,3.33
2022-08-27T17:49:40.115Z,3.97
2022-08-27T17:54:45.318Z,2.13
2022-08-27T17:59:50.018Z,4.53
2022-08-27T18:04:52.290Z,2.77
2022-08-27T18:09:54.369Z,6.13
2022-08-27T18:15:04.456Z,3.90
2022-08-27T18:20:08.228Z,5.30
2022-08-27T18:25:12.522Z,3.77
2022-08-27T18:30:15.636Z,4.77
2022-08-27T18:35:19.857Z,3.87
2022-08-27T18:40:24.750Z,3.93
2022-08-27T18:45:29.207Z,3.17
2022-08-27T18:50:30.958Z,3.10
2022-08-27T18:55:32.644Z,6.27
2022-08-27T19:00:36.903Z,4.10
2022-08-27T19:05:39.177Z,4.20
2022-08-27T19:10:45.363Z,7.83
2022-08-27T19:15:54.138Z,2.97
2022-08-27T19:20:56.513Z,5.63
2022-08-27T19:25:59.807Z,3.73
2022-08-27T19:31:02.898Z,4.23
2022-08-27T19:36:06.290Z,4.63
2022-08-27T19:41:08.282Z,4.23
2022-08-27T19:46:12.548Z,4.60
2022-08-27T19:51:14.567Z,4.43
2022-08-27T19:56:17.473Z,4.33
2022-08-27T20:01:20.738Z,5.80
2022-08-27T20:06:31.444Z,4.17
2022-08-27T20:11:36.905Z,6.67
2022-08-27T20:16:43.597Z,5.13
2022-08-27T20:21:52.749Z,3.27
2022-08-27T20:26:58.097Z,4.23
2022-08-27T20:32:03.379Z,7.40
2022-08-27T20:37:05.413Z,4.93
2022-08-27T20:42:07.675Z,4.20
2022-08-27T20:47:11.217Z,4.80
2022-08-27T20:52:13.661Z,7.67
2022-08-27T20:57:15.676Z,5.13
2022-08-27T21:02:24.263Z,6.40
2022-08-27T21:07:26.218Z,7.17
2022-08-27T21:12:29.433Z,9.97
2022-08-27T21:17:32.585Z,10.23
2022-08-27T21:22:34.775Z,10.67
2022-08-27T21:27:37.259Z,10.07
2022-08-27T21:32:40.487Z,8.30
2022-08-27T21:37:42.579Z,7.80
2022-08-27T21:42:44.291Z,8.63
2022-08-27T21:47:47.854Z,10.83
2022-08-27T21:52:49.975Z,11.00
2022-08-27T21:57:52.003Z,9.17
2022-08-27T22:02:55.861Z,9.57
2022-08-27T22:07:58.028Z,10.57
2022-08-27T22:13:00.132Z,15.30
2022-08-27T22:18:04.626Z,10.53
2022-08-27T22:23:08.542Z,6.87
2022-08-27T22:28:12.352Z,7.17
2022-08-27T22:33:16.453Z,7.90
2022-08-27T22:38:18.707Z,6.17
2022-08-27T22:43:20.862Z,7.57
2022-08-27T22:48:24.110Z,5.50
2022-08-27T22:53:26.037Z,5.73
2022-08-27T22:58:27.837Z,9.10
2022-08-27T23:03:31.368Z,5.17
2022-08-27T23:08:33.501Z,6.47
2022-08-27T23:13:35.833Z,4.97
2022-08-27T23:18:39.120Z,5.83
2022-08-27T23:23:41.145Z,5.80
2022-08-27T23:28:43.537Z,5.57
2022-08-27T23:33:50.825Z,6.80
2022-08-27T23:38:52.524Z,7.37
2022-08-27T23:43:54.569Z,8.57
2022-08-27T23:48:57.894Z,6.77
2022-08-27T23:53:59.960Z,7.53
2022-08-27T23:59:02.092Z,6.73
